sensor_id;sensor_type;location;lat;lon;timestamp;P1;durP1;ratioP1;P2;durP2;ratioP2
10910;SDS011;5508;49.150;11.030;2023-09-07T00:01:14;6.17;;;5.60;;
10910;SDS011;5508;49.150;11.030;2023-09-07T00:04:14;5.90;;;5.40;;
10910;SDS011;5508;49.150;11.030;2023-09-07T00:07:15;5.50;;;5.00;;
10910;SDS011;5508;49.150;11.030;2023-09-07T00:10:15;5.60;;;5.10;;
10910;SDS011;5508;49.150;11.030;2023-09-07T00:13:17;4.97;;;4.47;;
10910;SDS011;5508;49.150;11.030;2023-09-07T00:16:18;5.73;;;4.67;;
10910;SDS011;5508;49.150;11.030;2023-09-07T00:19:18;5.17;;;4.73;;
10910;SDS011;5508;49.150;11.030;2023-09-07T00:22:19;7.20;;;4.63;;
10910;SDS011;5508;49.150;11.030;2023-09-07T00:25:19;5.70;;;4.77;;
10910;SDS011;5508;49.150;11.030;2023-09-07T00:28:20;5.17;;;4.67;;
10910;SDS011;5508;49.150;11.030;2023-09-07T00:31:22;5.70;;;5.20;;
10910;SDS011;5508;49.150;11.030;2023-09-07T00:34:22;8.67;;;5.07;;
10910;SDS011;5508;49.150;11.030;2023-09-07T00:37:23;6.63;;;5.93;;
10910;SDS011;5508;49.150;11.030;2023-09-07T00:40:23;8.00;;;6.13;;
10910;SDS011;5508;49.150;11.030;2023-09-07T00:43:25;7.40;;;6.70;;
10910;SDS011;5508;49.150;11.030;2023-09-07T00:46:26;9.23;;;6.43;;
10910;SDS011;5508;49.150;11.030;2023-09-07T00:49:26;5.27;;;4.60;;
10910;SDS011;5508;49.150;11.030;2023-09-07T00:52:27;8.27;;;4.60;;
10910;SDS011;5508;49.150;11.030;2023-09-07T00:55:27;4.93;;;4.43;;
10910;SDS011;5508;49.150;11.030;2023-09-07T00:58:32;5.60;;;4.83;;
10910;SDS011;5508;49.150;11.030;2023-09-07T01:01:33;7.20;;;4.80;;
10910;SDS011;5508;49.150;11.030;2023-09-07T01:04:35;5.17;;;4.77;;
10910;SDS011;5508;49.150;11.030;2023-09-07T01:07:40;5.13;;;4.67;;
10910;SDS011;5508;49.150;11.030;2023-09-07T01:10:46;5.50;;;5.00;;
10910;SDS011;5508;49.150;11.030;2023-09-07T01:13:47;8.30;;;5.10;;
10910;SDS011;5508;49.150;11.030;2023-09-07T01:16:47;6.43;;;5.13;;
10910;SDS011;5508;49.150;11.030;2023-09-07T01:19:49;5.60;;;5.10;;
10910;SDS011;5508;49.150;11.030;2023-09-07T01:22:51;6.40;;;5.40;;
10910;SDS011;5508;49.150;11.030;2023-09-07T01:25:52;17.20;;;5.50;;
10910;SDS011;5508;49.150;11.030;2023-09-07T01:28:53;5.87;;;5.00;;
10910;SDS011;5508;49.150;11.030;2023-09-07T01:31:54;7.03;;;5.00;;
10910;SDS011;5508;49.150;11.030;2023-09-07T01:38:53;5.63;;;5.07;;
10910;SDS011;5508;49.150;11.030;2023-09-07T01:41:54;5.03;;;4.53;;
10910;SDS011;5508;49.150;11.030;2023-09-07T01:44:54;5.83;;;5.23;;
10910;SDS011;5508;49.150;11.030;2023-09-07T01:47:55;6.27;;;4.97;;
10910;SDS011;5508;49.150;11.030;2023-09-07T01:50:55;5.20;;;4.70;;
10910;SDS011;5508;49.150;11.030;2023-09-07T01:53:56;5.60;;;5.10;;
10910;SDS011;5508;49.150;11.030;2023-09-07T01:56:56;5.37;;;4.73;;
10910;SDS011;5508;49.150;11.030;2023-09-07T01:59:57;5.50;;;5.00;;
10910;SDS011;5508;49.150;11.030;2023-09-07T02:02:58;5.13;;;4.63;;
10910;SDS011;5508;49.150;11.030;2023-09-07T02:05:59;6.03;;;5.03;;
10910;SDS011;5508;49.150;11.030;2023-09-07T02:08:59;5.40;;;4.90;;
10910;SDS011;5508;49.150;11.030;2023-09-07T02:12:00;5.73;;;5.13;;
10910;SDS011;5508;49.150;11.030;2023-09-07T02:15:04;6.57;;;5.00;;
10910;SDS011;5508;49.150;11.030;2023-09-07T02:18:05;8.50;;;5.10;;
10910;SDS011;5508;49.150;11.030;2023-09-07T02:21:06;8.60;;;5.33;;
10910;SDS011;5508;49.150;11.030;2023-09-07T02:24:06;5.63;;;5.13;;
10910;SDS011;5508;49.150;11.030;2023-09-07T02:27:07;6.57;;;5.50;;
10910;SDS011;5508;49.150;11.030;2023-09-07T02:30:08;8.03;;;5.07;;
10910;SDS011;5508;49.150;11.030;2023-09-07T02:33:09;5.90;;;5.30;;
10910;SDS011;5508;49.150;11.030;2023-09-07T02:36:09;5.17;;;4.60;;
10910;SDS011;5508;49.150;11.030;2023-09-07T02:39:10;6.97;;;5.13;;
10910;SDS011;5508;49.150;11.030;2023-09-07T02:42:11;6.20;;;5.50;;
10910;SDS011;5508;49.150;11.030;2023-09-07T02:45:12;5.50;;;5.00;;
10910;SDS011;5508;49.150;11.030;2023-09-07T02:48:12;6.13;;;5.53;;
10910;SDS011;5508;49.150;11.030;2023-09-07T02:51:13;6.30;;;5.70;;
10910;SDS011;5508;49.150;11.030;2023-09-07T02:54:13;6.77;;;5.43;;
10910;SDS011;5508;49.150;11.030;2023-09-07T02:57:14;5.57;;;5.10;;
10910;SDS011;5508;49.150;11.030;2023-09-07T03:00:15;7.47;;;5.20;;
10910;SDS011;5508;49.150;11.030;2023-09-07T03:03:17;6.63;;;5.33;;
10910;SDS011;5508;49.150;11.030;2023-09-07T03:06:18;6.80;;;5.40;;
10910;SDS011;5508;49.150;11.030;2023-09-07T03:09:18;5.80;;;4.77;;
10910;SDS011;5508;49.150;11.030;2023-09-07T03:12:19;6.10;;;5.50;;
10910;SDS011;5508;49.150;11.030;2023-09-07T03:15:20;7.67;;;5.57;;
10910;SDS011;5508;49.150;11.030;2023-09-07T03:18:21;6.77;;;5.73;;
10910;SDS011;5508;49.150;11.030;2023-09-07T03:21:22;7.70;;;6.00;;
10910;SDS011;5508;49.150;11.030;2023-09-07T03:24:29;7.57;;;5.30;;
10910;SDS011;5508;49.150;11.030;2023-09-07T03:27:29;6.00;;;5.40;;
10910;SDS011;5508;49.150;11.030;2023-09-07T03:30:30;5.57;;;5.07;;
10910;SDS011;5508;49.150;11.030;2023-09-07T03:33:30;6.63;;;5.67;;
10910;SDS011;5508;49.150;11.030;2023-09-07T03:36:31;7.77;;;5.70;;
10910;SDS011;5508;49.150;11.030;2023-09-07T03:39:32;5.53;;;4.90;;
10910;SDS011;5508;49.150;11.030;2023-09-07T03:42:33;5.50;;;4.83;;
10910;SDS011;5508;49.150;11.030;2023-09-07T03:45:33;5.60;;;5.10;;
10910;SDS011;5508;49.150;11.030;2023-09-07T03:48:34;6.10;;;5.53;;
10910;SDS011;5508;49.150;11.030;2023-09-07T03:51:34;8.27;;;7.47;;
10910;SDS011;5508;49.150;11.030;2023-09-07T03:54:35;10.90;;;8.90;;
10910;SDS011;5508;49.150;11.030;2023-09-07T03:57:36;7.93;;;7.13;;
10910;SDS011;5508;49.150;11.030;2023-09-07T04:00:40;7.23;;;6.50;;
10910;SDS011;5508;49.150;11.030;2023-09-07T04:03:41;7.50;;;6.80;;
10910;SDS011;5508;49.150;11.030;2023-09-07T04:06:41;9.00;;;6.40;;
10910;SDS011;5508;49.150;11.030;2023-09-07T04:09:42;7.13;;;6.00;;
10910;SDS011;5508;49.150;11.030;2023-09-07T04:12:44;6.70;;;6.10;;
10910;SDS011;5508;49.150;11.030;2023-09-07T04:15:44;8.53;;;6.10;;
10910;SDS011;5508;49.150;11.030;2023-09-07T04:18:45;6.83;;;5.40;;
10910;SDS011;5508;49.150;11.030;2023-09-07T04:21:46;6.30;;;5.37;;
10910;SDS011;5508;49.150;11.030;2023-09-07T04:24:49;7.07;;;4.93;;
10910;SDS011;5508;49.150;11.030;2023-09-07T04:27:50;7.33;;;5.20;;
10910;SDS011;5508;49.150;11.030;2023-09-07T04:30:50;6.40;;;5.43;;
10910;SDS011;5508;49.150;11.030;2023-09-07T04:33:51;5.73;;;5.17;;
10910;SDS011;5508;49.150;11.030;2023-09-07T04:36:51;7.13;;;5.27;;
10910;SDS011;5508;49.150;11.030;2023-09-07T04:39:52;8.73;;;5.17;;
10910;SDS011;5508;49.150;11.030;2023-09-07T04:42:53;6.57;;;5.27;;
10910;SDS011;5508;49.150;11.030;2023-09-07T04:45:54;6.73;;;5.53;;
10910;SDS011;5508;49.150;11.030;2023-09-07T04:48:54;13.73;;;6.20;;
10910;SDS011;5508;49.150;11.030;2023-09-07T04:51:56;16.80;;;5.80;;
10910;SDS011;5508;49.150;11.030;2023-09-07T04:54:57;7.83;;;6.13;;
10910;SDS011;5508;49.150;11.030;2023-09-07T04:57:57;7.77;;;5.73;;
10910;SDS011;5508;49.150;11.030;2023-09-07T05:01:05;7.13;;;6.13;;
10910;SDS011;5508;49.150;11.030;2023-09-07T05:04:06;6.33;;;5.33;;
10910;SDS011;5508;49.150;11.030;2023-09-07T05:07:07;9.07;;;5.67;;
10910;SDS011;5508;49.150;11.030;2023-09-07T05:10:07;7.87;;;5.43;;
10910;SDS011;5508;49.150;11.030;2023-09-07T05:13:12;6.33;;;5.43;;
10910;SDS011;5508;49.150;11.030;2023-09-07T05:16:12;6.63;;;5.50;;
10910;SDS011;5508;49.150;11.030;2023-09-07T05:19:13;9.73;;;5.50;;
10910;SDS011;5508;49.150;11.030;2023-09-07T05:22:14;7.77;;;5.67;;
10910;SDS011;5508;49.150;11.030;2023-09-07T05:25:14;9.33;;;6.43;;
10910;SDS011;5508;49.150;11.030;2023-09-07T05:28:15;6.23;;;5.57;;
10910;SDS011;5508;49.150;11.030;2023-09-07T05:31:15;7.37;;;5.40;;
10910;SDS011;5508;49.150;11.030;2023-09-07T05:34:16;7.53;;;6.20;;
10910;SDS011;5508;49.150;11.030;2023-09-07T05:37:17;7.37;;;6.67;;
10910;SDS011;5508;49.150;11.030;2023-09-07T05:40:17;6.70;;;6.03;;
10910;SDS011;5508;49.150;11.030;2023-09-07T05:43:18;6.80;;;6.00;;
10910;SDS011;5508;49.150;11.030;2023-09-07T05:46:18;8.07;;;6.30;;
10910;SDS011;5508;49.150;11.030;2023-09-07T05:49:19;6.47;;;5.77;;
10910;SDS011;5508;49.150;11.030;2023-09-07T05:52:19;7.50;;;6.30;;
10910;SDS011;5508;49.150;11.030;2023-09-07T05:55:20;7.83;;;6.00;;
10910;SDS011;5508;49.150;11.030;2023-09-07T05:58:21;7.53;;;6.27;;
10910;SDS011;5508;49.150;11.030;2023-09-07T06:01:21;7.20;;;6.50;;
10910;SDS011;5508;49.150;11.030;2023-09-07T06:04:22;9.27;;;7.03;;
10910;SDS011;5508;49.150;11.030;2023-09-07T06:07:22;12.17;;;6.47;;
10910;SDS011;5508;49.150;11.030;2023-09-07T06:10:23;9.00;;;5.70;;
10910;SDS011;5508;49.150;11.030;2023-09-07T06:13:24;6.47;;;5.50;;
10910;SDS011;5508;49.150;11.030;2023-09-07T06:16:24;11.40;;;6.60;;
10910;SDS011;5508;49.150;11.030;2023-09-07T06:19:25;7.43;;;6.23;;
10910;SDS011;5508;49.150;11.030;2023-09-07T06:22:26;7.97;;;6.50;;
10910;SDS011;5508;49.150;11.030;2023-09-07T06:25:26;7.33;;;6.40;;
10910;SDS011;5508;49.150;11.030;2023-09-07T06:28:27;16.67;;;7.27;;
10910;SDS011;5508;49.150;11.030;2023-09-07T06:31:27;11.13;;;7.00;;
10910;SDS011;5508;49.150;11.030;2023-09-07T06:34:28;9.57;;;7.30;;
10910;SDS011;5508;49.150;11.030;2023-09-07T06:37:29;10.70;;;7.33;;
10910;SDS011;5508;49.150;11.030;2023-09-07T06:40:30;11.43;;;7.40;;
10910;SDS011;5508;49.150;11.030;2023-09-07T06:43:30;12.60;;;8.20;;
10910;SDS011;5508;49.150;11.030;2023-09-07T06:46:32;11.20;;;8.13;;
10910;SDS011;5508;49.150;11.030;2023-09-07T06:49:33;13.07;;;8.20;;
10910;SDS011;5508;49.150;11.030;2023-09-07T06:52:33;9.83;;;7.53;;
10910;SDS011;5508;49.150;11.030;2023-09-07T06:55:34;11.87;;;8.90;;
10910;SDS011;5508;49.150;11.030;2023-09-07T06:58:34;9.90;;;8.70;;
10910;SDS011;5508;49.150;11.030;2023-09-07T07:01:35;10.40;;;8.37;;
10910;SDS011;5508;49.150;11.030;2023-09-07T07:04:35;11.73;;;8.80;;
10910;SDS011;5508;49.150;11.030;2023-09-07T07:07:36;10.07;;;8.70;;
10910;SDS011;5508;49.150;11.030;2023-09-07T07:10:37;9.70;;;8.70;;
10910;SDS011;5508;49.150;11.030;2023-09-07T07:13:38;10.50;;;9.37;;
10910;SDS011;5508;49.150;11.030;2023-09-07T07:16:38;9.40;;;8.50;;
10910;SDS011;5508;49.150;11.030;2023-09-07T07:19:39;9.07;;;8.13;;
10910;SDS011;5508;49.150;11.030;2023-09-07T07:22:40;9.20;;;8.33;;
10910;SDS011;5508;49.150;11.030;2023-09-07T07:25:40;8.63;;;7.47;;
10910;SDS011;5508;49.150;11.030;2023-09-07T07:28:41;7.77;;;6.80;;
10910;SDS011;5508;49.150;11.030;2023-09-07T07:31:41;6.90;;;6.00;;
10910;SDS011;5508;49.150;11.030;2023-09-07T07:34:42;8.00;;;6.17;;
10910;SDS011;5508;49.150;11.030;2023-09-07T07:37:43;6.37;;;4.77;;
10910;SDS011;5508;49.150;11.030;2023-09-07T07:40:43;5.63;;;4.83;;
10910;SDS011;5508;49.150;11.030;2023-09-07T07:43:46;5.17;;;4.60;;
10910;SDS011;5508;49.150;11.030;2023-09-07T07:46:47;5.67;;;4.80;;
10910;SDS011;5508;49.150;11.030;2023-09-07T07:49:47;4.90;;;4.40;;
10910;SDS011;5508;49.150;11.030;2023-09-07T07:52:48;11.63;;;4.37;;
10910;SDS011;5508;49.150;11.030;2023-09-07T07:55:48;4.70;;;3.90;;
10910;SDS011;5508;49.150;11.030;2023-09-07T07:58:49;5.23;;;4.47;;
10910;SDS011;5508;49.150;11.030;2023-09-07T08:01:50;4.30;;;3.90;;
10910;SDS011;5508;49.150;11.030;2023-09-07T08:04:50;5.70;;;4.20;;
10910;SDS011;5508;49.150;11.030;2023-09-07T08:07:51;7.60;;;4.17;;
10910;SDS011;5508;49.150;11.030;2023-09-07T08:10:53;5.33;;;4.27;;
10910;SDS011;5508;49.150;11.030;2023-09-07T08:13:53;10.20;;;5.00;;
10910;SDS011;5508;49.150;11.030;2023-09-07T08:16:54;6.55;;;3.60;;
10910;SDS011;5508;49.150;11.030;2023-09-07T08:19:55;6.72;;;4.10;;
10910;SDS011;5508;49.150;11.030;2023-09-07T08:22:56;4.40;;;4.00;;
10910;SDS011;5508;49.150;11.030;2023-09-07T08:25:58;4.80;;;3.47;;
10910;SDS011;5508;49.150;11.030;2023-09-07T08:29:00;6.38;;;4.10;;
10910;SDS011;5508;49.150;11.030;2023-09-07T08:32:05;4.15;;;3.70;;
10910;SDS011;5508;49.150;11.030;2023-09-07T08:35:06;5.53;;;3.65;;
10910;SDS011;5508;49.150;11.030;2023-09-07T08:38:11;5.03;;;3.70;;
10910;SDS011;5508;49.150;11.030;2023-09-07T08:41:13;4.25;;;3.47;;
10910;SDS011;5508;49.150;11.030;2023-09-07T08:44:15;4.20;;;3.40;;
10910;SDS011;5508;49.150;11.030;2023-09-07T08:47:18;5.55;;;3.38;;
10910;SDS011;5508;49.150;11.030;2023-09-07T08:50:19;6.07;;;3.05;;
10910;SDS011;5508;49.150;11.030;2023-09-07T08:53:21;4.63;;;3.33;;
10910;SDS011;5508;49.150;11.030;2023-09-07T08:56:23;5.55;;;3.05;;
10910;SDS011;5508;49.150;11.030;2023-09-07T08:59:25;3.08;;;2.78;;
10910;SDS011;5508;49.150;11.030;2023-09-07T09:02:26;3.17;;;2.88;;
10910;SDS011;5508;49.150;11.030;2023-09-07T09:05:27;4.55;;;3.03;;
10910;SDS011;5508;49.150;11.030;2023-09-07T09:08:40;3.10;;;2.78;;
10910;SDS011;5508;49.150;11.030;2023-09-07T09:11:45;4.30;;;3.38;;
10910;SDS011;5508;49.150;11.030;2023-09-07T09:14:45;2.80;;;2.60;;
10910;SDS011;5508;49.150;11.030;2023-09-07T09:17:46;3.03;;;2.67;;
10910;SDS011;5508;49.150;11.030;2023-09-07T09:20:46;3.35;;;2.90;;
10910;SDS011;5508;49.150;11.030;2023-09-07T09:23:49;3.40;;;3.00;;
10910;SDS011;5508;49.150;11.030;2023-09-07T09:26:51;3.30;;;3.00;;
10910;SDS011;5508;49.150;11.030;2023-09-07T09:29:51;4.22;;;3.15;;
10910;SDS011;5508;49.150;11.030;2023-09-07T09:32:52;5.63;;;3.28;;
10910;SDS011;5508;49.150;11.030;2023-09-07T09:35:53;3.33;;;2.70;;
10910;SDS011;5508;49.150;11.030;2023-09-07T09:38:55;5.28;;;2.92;;
10910;SDS011;5508;49.150;11.030;2023-09-07T09:41:55;8.70;;;3.22;;
10910;SDS011;5508;49.150;11.030;2023-09-07T09:44:56;4.03;;;2.97;;
10910;SDS011;5508;49.150;11.030;2023-09-07T09:47:58;3.92;;;3.20;;
10910;SDS011;5508;49.150;11.030;2023-09-07T09:51:02;3.53;;;2.92;;
10910;SDS011;5508;49.150;11.030;2023-09-07T09:54:04;3.13;;;2.60;;
10910;SDS011;5508;49.150;11.030;2023-09-07T09:57:06;3.20;;;2.90;;
10910;SDS011;5508;49.150;11.030;2023-09-07T10:00:07;3.58;;;3.28;;
10910;SDS011;5508;49.150;11.030;2023-09-07T10:03:21;2.90;;;2.60;;
10910;SDS011;5508;49.150;11.030;2023-09-07T10:06:28;3.10;;;2.80;;
10910;SDS011;5508;49.150;11.030;2023-09-07T10:09:30;3.85;;;2.85;;
10910;SDS011;5508;49.150;11.030;2023-09-07T10:12:39;4.57;;;3.10;;
10910;SDS011;5508;49.150;11.030;2023-09-07T10:15:43;4.75;;;3.13;;
10910;SDS011;5508;49.150;11.030;2023-09-07T10:18:44;2.90;;;2.60;;
10910;SDS011;5508;49.150;11.030;2023-09-07T10:21:45;4.63;;;3.00;;
10910;SDS011;5508;49.150;11.030;2023-09-07T10:24:45;5.07;;;2.70;;
10910;SDS011;5508;49.150;11.030;2023-09-07T10:27:59;3.03;;;2.72;;
10910;SDS011;5508;49.150;11.030;2023-09-07T10:31:02;3.88;;;3.03;;
10910;SDS011;5508;49.150;11.030;2023-09-07T10:34:09;3.92;;;2.20;;
10910;SDS011;5508;49.150;11.030;2023-09-07T10:37:12;3.05;;;2.45;;
10910;SDS011;5508;49.150;11.030;2023-09-07T10:40:20;3.30;;;3.00;;
10910;SDS011;5508;49.150;11.030;2023-09-07T10:43:26;2.75;;;2.47;;
10910;SDS011;5508;49.150;11.030;2023-09-07T10:46:30;3.53;;;2.80;;
10910;SDS011;5508;49.150;11.030;2023-09-07T10:49:30;5.53;;;2.80;;
10910;SDS011;5508;49.150;11.030;2023-09-07T10:52:33;4.30;;;2.70;;
10910;SDS011;5508;49.150;11.030;2023-09-07T10:55:37;4.32;;;2.85;;
10910;SDS011;5508;49.150;11.030;2023-09-07T10:58:40;2.95;;;2.70;;
10910;SDS011;5508;49.150;11.030;2023-09-07T11:01:43;3.03;;;2.70;;
10910;SDS011;5508;49.150;11.030;2023-09-07T11:04:44;5.07;;;3.00;;
10910;SDS011;5508;49.150;11.030;2023-09-07T11:07:45;2.90;;;2.60;;
10910;SDS011;5508;49.150;11.030;2023-09-07T11:10:45;3.38;;;2.78;;
10910;SDS011;5508;49.150;11.030;2023-09-07T11:13:46;8.38;;;2.75;;
10910;SDS011;5508;49.150;11.030;2023-09-07T11:16:48;4.22;;;3.05;;
10910;SDS011;5508;49.150;11.030;2023-09-07T11:19:51;4.18;;;2.63;;
10910;SDS011;5508;49.150;11.030;2023-09-07T11:22:53;3.28;;;2.42;;
10910;SDS011;5508;49.150;11.030;2023-09-07T11:25:53;3.10;;;2.67;;
10910;SDS011;5508;49.150;11.030;2023-09-07T11:28:56;5.97;;;2.97;;
10910;SDS011;5508;49.150;11.030;2023-09-07T11:32:06;2.92;;;2.50;;
10910;SDS011;5508;49.150;11.030;2023-09-07T11:35:10;3.00;;;2.22;;
10910;SDS011;5508;49.150;11.030;2023-09-07T11:38:12;3.70;;;2.70;;
10910;SDS011;5508;49.150;11.030;2023-09-07T11:41:13;4.20;;;3.00;;
10910;SDS011;5508;49.150;11.030;2023-09-07T11:44:14;4.40;;;2.92;;
10910;SDS011;5508;49.150;11.030;2023-09-07T11:47:15;3.40;;;2.63;;
10910;SDS011;5508;49.150;11.030;2023-09-07T11:50:16;5.75;;;2.95;;
10910;SDS011;5508;49.150;11.030;2023-09-07T11:53:18;3.55;;;2.75;;
10910;SDS011;5508;49.150;11.030;2023-09-07T11:56:18;3.33;;;2.75;;
10910;SDS011;5508;49.150;11.030;2023-09-07T11:59:19;3.10;;;2.80;;
10910;SDS011;5508;49.150;11.030;2023-09-07T12:02:20;4.40;;;2.90;;
10910;SDS011;5508;49.150;11.030;2023-09-07T12:05:21;3.65;;;2.80;;
10910;SDS011;5508;49.150;11.030;2023-09-07T12:08:21;4.03;;;3.00;;
10910;SDS011;5508;49.150;11.030;2023-09-07T12:11:22;3.80;;;3.08;;
10910;SDS011;5508;49.150;11.030;2023-09-07T12:14:23;3.67;;;2.88;;
10910;SDS011;5508;49.150;11.030;2023-09-07T12:17:23;3.05;;;2.60;;
10910;SDS011;5508;49.150;11.030;2023-09-07T12:20:24;4.18;;;2.95;;
10910;SDS011;5508;49.150;11.030;2023-09-07T12:23:25;3.22;;;2.92;;
10910;SDS011;5508;49.150;11.030;2023-09-07T12:26:25;4.32;;;2.70;;
10910;SDS011;5508;49.150;11.030;2023-09-07T12:29:26;3.60;;;2.97;;
10910;SDS011;5508;49.150;11.030;2023-09-07T12:32:26;6.10;;;3.38;;
10910;SDS011;5508;49.150;11.030;2023-09-07T12:35:27;5.88;;;3.33;;
10910;SDS011;5508;49.150;11.030;2023-09-07T12:38:28;3.38;;;3.08;;
10910;SDS011;5508;49.150;11.030;2023-09-07T12:41:29;3.80;;;2.78;;
10910;SDS011;5508;49.150;11.030;2023-09-07T12:44:30;2.80;;;2.60;;
10910;SDS011;5508;49.150;11.030;2023-09-07T12:47:32;3.88;;;3.10;;
10910;SDS011;5508;49.150;11.030;2023-09-07T12:50:32;3.30;;;2.97;;
10910;SDS011;5508;49.150;11.030;2023-09-07T12:53:33;3.30;;;3.00;;
10910;SDS011;5508;49.150;11.030;2023-09-07T12:56:34;3.17;;;2.80;;
10910;SDS011;5508;49.150;11.030;2023-09-07T12:59:34;3.15;;;2.80;;
10910;SDS011;5508;49.150;11.030;2023-09-07T13:02:35;3.80;;;3.17;;
10910;SDS011;5508;49.150;11.030;2023-09-07T13:05:35;4.25;;;3.47;;
10910;SDS011;5508;49.150;11.030;2023-09-07T13:08:36;4.55;;;3.03;;
10910;SDS011;5508;49.150;11.030;2023-09-07T13:11:37;3.78;;;3.22;;
10910;SDS011;5508;49.150;11.030;2023-09-07T13:14:39;3.42;;;3.13;;
10910;SDS011;5508;49.150;11.030;2023-09-07T13:17:39;4.57;;;3.25;;
10910;SDS011;5508;49.150;11.030;2023-09-07T13:20:40;2.55;;;2.35;;
10910;SDS011;5508;49.150;11.030;2023-09-07T13:23:41;3.90;;;2.72;;
10910;SDS011;5508;49.150;11.030;2023-09-07T13:26:46;4.00;;;3.17;;
10910;SDS011;5508;49.150;11.030;2023-09-07T13:29:47;5.25;;;3.03;;
10910;SDS011;5508;49.150;11.030;2023-09-07T13:32:47;3.72;;;2.95;;
10910;SDS011;5508;49.150;11.030;2023-09-07T13:35:49;3.83;;;3.53;;
10910;SDS011;5508;49.150;11.030;2023-09-07T13:38:50;5.72;;;3.47;;
10910;SDS011;5508;49.150;11.030;2023-09-07T13:41:51;3.42;;;2.97;;
10910;SDS011;5508;49.150;11.030;2023-09-07T13:44:51;5.47;;;3.08;;
10910;SDS011;5508;49.150;11.030;2023-09-07T13:47:52;4.05;;;2.90;;
10910;SDS011;5508;49.150;11.030;2023-09-07T13:50:52;6.57;;;3.15;;
10910;SDS011;5508;49.150;11.030;2023-09-07T13:53:53;3.95;;;3.00;;
10910;SDS011;5508;49.150;11.030;2023-09-07T13:56:53;3.65;;;3.25;;
10910;SDS011;5508;49.150;11.030;2023-09-07T13:59:54;3.45;;;2.95;;
10910;SDS011;5508;49.150;11.030;2023-09-07T14:02:55;5.25;;;3.33;;
10910;SDS011;5508;49.150;11.030;2023-09-07T14:05:55;4.43;;;3.38;;
10910;SDS011;5508;49.150;11.030;2023-09-07T14:08:56;3.65;;;2.88;;
10910;SDS011;5508;49.150;11.030;2023-09-07T14:11:57;3.20;;;2.90;;
10910;SDS011;5508;49.150;11.030;2023-09-07T14:14:58;4.65;;;3.08;;
10910;SDS011;5508;49.150;11.030;2023-09-07T14:17:58;3.40;;;3.10;;
10910;SDS011;5508;49.150;11.030;2023-09-07T14:21:01;4.70;;;3.35;;
10910;SDS011;5508;49.150;11.030;2023-09-07T14:24:01;3.15;;;2.85;;
10910;SDS011;5508;49.150;11.030;2023-09-07T14:27:04;4.82;;;3.55;;
10910;SDS011;5508;49.150;11.030;2023-09-07T14:30:05;4.47;;;3.20;;
10910;SDS011;5508;49.150;11.030;2023-09-07T14:33:06;4.88;;;3.40;;
10910;SDS011;5508;49.150;11.030;2023-09-07T14:36:07;3.83;;;2.88;;
10910;SDS011;5508;49.150;11.030;2023-09-07T14:39:08;7.60;;;3.05;;
10910;SDS011;5508;49.150;11.030;2023-09-07T14:42:09;3.22;;;2.92;;
10910;SDS011;5508;49.150;11.030;2023-09-07T14:45:14;4.30;;;3.13;;
10910;SDS011;5508;49.150;11.030;2023-09-07T14:48:14;4.28;;;2.70;;
10910;SDS011;5508;49.150;11.030;2023-09-07T14:51:15;4.22;;;3.10;;
10910;SDS011;5508;49.150;11.030;2023-09-07T14:54:16;6.40;;;3.35;;
10910;SDS011;5508;49.150;11.030;2023-09-07T14:57:17;6.50;;;3.15;;
10910;SDS011;5508;49.150;11.030;2023-09-07T15:00:19;3.92;;;3.20;;
10910;SDS011;5508;49.150;11.030;2023-09-07T15:03:20;3.72;;;3.30;;
10910;SDS011;5508;49.150;11.030;2023-09-07T15:06:20;5.55;;;3.28;;
10910;SDS011;5508;49.150;11.030;2023-09-07T15:09:21;3.40;;;3.10;;
10910;SDS011;5508;49.150;11.030;2023-09-07T15:12:21;3.40;;;2.92;;
10910;SDS011;5508;49.150;11.030;2023-09-07T15:15:22;3.28;;;2.90;;
10910;SDS011;5508;49.150;11.030;2023-09-07T15:18:23;4.70;;;3.30;;
10910;SDS011;5508;49.150;11.030;2023-09-07T15:21:23;4.32;;;3.20;;
10910;SDS011;5508;49.150;11.030;2023-09-07T15:24:24;4.50;;;2.97;;
10910;SDS011;5508;49.150;11.030;2023-09-07T15:27:24;7.82;;;3.47;;
10910;SDS011;5508;49.150;11.030;2023-09-07T15:30:25;3.35;;;3.03;;
10910;SDS011;5508;49.150;11.030;2023-09-07T15:33:26;3.67;;;3.17;;
10910;SDS011;5508;49.150;11.030;2023-09-07T15:36:26;3.10;;;2.80;;
10910;SDS011;5508;49.150;11.030;2023-09-07T15:39:27;3.50;;;2.97;;
10910;SDS011;5508;49.150;11.030;2023-09-07T15:42:28;3.50;;;3.03;;
10910;SDS011;5508;49.150;11.030;2023-09-07T15:45:29;5.18;;;3.20;;
10910;SDS011;5508;49.150;11.030;2023-09-07T15:48:30;3.50;;;3.20;;
10910;SDS011;5508;49.150;11.030;2023-09-07T15:51:31;5.18;;;3.13;;
10910;SDS011;5508;49.150;11.030;2023-09-07T15:54:32;4.80;;;2.95;;
10910;SDS011;5508;49.150;11.030;2023-09-07T15:57:32;3.60;;;3.20;;
10910;SDS011;5508;49.150;11.030;2023-09-07T16:00:33;3.78;;;2.80;;
10910;SDS011;5508;49.150;11.030;2023-09-07T16:03:34;3.67;;;3.30;;
10910;SDS011;5508;49.150;11.030;2023-09-07T16:06:34;3.30;;;3.00;;
10910;SDS011;5508;49.150;11.030;2023-09-07T16:09:35;4.55;;;2.95;;
10910;SDS011;5508;49.150;11.030;2023-09-07T16:12:35;3.75;;;2.90;;
10910;SDS011;5508;49.150;11.030;2023-09-07T16:15:36;3.90;;;3.00;;
10910;SDS011;5508;49.150;11.030;2023-09-07T16:18:37;4.53;;;3.08;;
10910;SDS011;5508;49.150;11.030;2023-09-07T16:21:37;3.90;;;3.30;;
10910;SDS011;5508;49.150;11.030;2023-09-07T16:24:38;4.75;;;3.22;;
10910;SDS011;5508;49.150;11.030;2023-09-07T16:27:38;3.50;;;3.20;;
10910;SDS011;5508;49.150;11.030;2023-09-07T16:30:41;7.10;;;3.28;;
10910;SDS011;5508;49.150;11.030;2023-09-07T16:33:42;4.93;;;3.30;;
10910;SDS011;5508;49.150;11.030;2023-09-07T16:36:43;3.10;;;2.85;;
10910;SDS011;5508;49.150;11.030;2023-09-07T16:39:44;4.38;;;3.00;;
10910;SDS011;5508;49.150;11.030;2023-09-07T16:42:46;6.57;;;3.67;;
10910;SDS011;5508;49.150;11.030;2023-09-07T16:45:55;6.28;;;3.35;;
10910;SDS011;5508;49.150;11.030;2023-09-07T16:48:57;7.93;;;3.65;;
10910;SDS011;5508;49.150;11.030;2023-09-07T16:51:57;5.82;;;3.53;;
10910;SDS011;5508;49.150;11.030;2023-09-07T16:54:58;9.00;;;5.80;;
10910;SDS011;5508;49.150;11.030;2023-09-07T16:57:59;4.90;;;4.00;;
10910;SDS011;5508;49.150;11.030;2023-09-07T17:01:03;4.65;;;3.53;;
10910;SDS011;5508;49.150;11.030;2023-09-07T17:04:05;5.55;;;3.20;;
10910;SDS011;5508;49.150;11.030;2023-09-07T17:07:05;3.90;;;3.50;;
10910;SDS011;5508;49.150;11.030;2023-09-07T17:10:06;4.72;;;3.75;;
10910;SDS011;5508;49.150;11.030;2023-09-07T17:13:08;5.75;;;3.72;;
10910;SDS011;5508;49.150;11.030;2023-09-07T17:16:08;4.05;;;3.65;;
10910;SDS011;5508;49.150;11.030;2023-09-07T17:19:09;4.28;;;3.67;;
10910;SDS011;5508;49.150;11.030;2023-09-07T17:22:09;5.80;;;3.55;;
10910;SDS011;5508;49.150;11.030;2023-09-07T17:25:12;4.65;;;3.67;;
10910;SDS011;5508;49.150;11.030;2023-09-07T17:28:13;6.13;;;3.70;;
10910;SDS011;5508;49.150;11.030;2023-09-07T17:31:14;8.68;;;3.92;;
10910;SDS011;5508;49.150;11.030;2023-09-07T17:34:15;5.05;;;3.30;;
10910;SDS011;5508;49.150;11.030;2023-09-07T17:37:16;4.78;;;3.55;;
10910;SDS011;5508;49.150;11.030;2023-09-07T17:40:16;6.78;;;3.72;;
10910;SDS011;5508;49.150;11.030;2023-09-07T17:43:17;4.00;;;3.60;;
10910;SDS011;5508;49.150;11.030;2023-09-07T17:46:17;4.60;;;3.70;;
10910;SDS011;5508;49.150;11.030;2023-09-07T17:49:18;5.07;;;3.60;;
10910;SDS011;5508;49.150;11.030;2023-09-07T17:52:19;7.53;;;4.15;;
10910;SDS011;5508;49.150;11.030;2023-09-07T17:55:19;7.47;;;4.80;;
10910;SDS011;5508;49.150;11.030;2023-09-07T17:58:20;6.45;;;3.97;;
10910;SDS011;5508;49.150;11.030;2023-09-07T18:01:21;4.22;;;3.83;;
10910;SDS011;5508;49.150;11.030;2023-09-07T18:04:21;4.80;;;4.00;;
10910;SDS011;5508;49.150;11.030;2023-09-07T18:07:22;5.38;;;4.38;;
10910;SDS011;5508;49.150;11.030;2023-09-07T18:10:23;5.40;;;3.95;;
10910;SDS011;5508;49.150;11.030;2023-09-07T18:13:24;5.82;;;4.20;;
10910;SDS011;5508;49.150;11.030;2023-09-07T18:16:24;4.00;;;3.53;;